createdAt,value
2018-03-02T00:00:38.779Z,8.63
2018-03-02T00:03:11.285Z,9.87
2018-03-02T00:05:43.797Z,9.73
2018-03-02T00:08:16.307Z,8.50
2018-03-02T00:10:48.829Z,9.70
2018-03-02T00:13:21.324Z,7.93
2018-03-02T00:15:53.865Z,10.00
2018-03-02T00:18:26.375Z,9.57
2018-03-02T00:20:58.911Z,8.23
2018-03-02T00:23:31.431Z,10.40
2018-03-02T00:26:03.965Z,10.30
2018-03-02T00:28:36.502Z,9.50
2018-03-02T00:31:09.583Z,9.73
2018-03-02T00:33:42.134Z,10.23
2018-03-02T00:36:15.463Z,6.47
2018-03-02T00:38:47.985Z,10.00
2018-03-02T00:41:20.493Z,5.97
2018-03-02T00:43:53.020Z,11.57
2018-03-02T00:46:26.058Z,8.37
2018-03-02T00:48:59.258Z,7.87
2018-03-02T00:51:31.762Z,11.20
2018-03-02T00:54:04.308Z,10.47
2018-03-02T00:56:36.813Z,10.03
2018-03-02T00:59:09.348Z,10.33
2018-03-02T01:01:41.863Z,10.87
2018-03-02T01:04:14.418Z,10.10
2018-03-02T01:06:46.924Z,11.67
2018-03-02T01:09:19.444Z,10.10
2018-03-02T01:11:51.944Z,8.07
2018-03-02T01:14:24.466Z,6.93
2018-03-02T01:16:56.996Z,10.97
2018-03-02T01:19:29.529Z,10.87
2018-03-02T01:22:02.030Z,13.03
2018-03-02T01:24:36.570Z,6.70
2018-03-02T01:27:09.079Z,8.13
2018-03-02T01:29:41.603Z,11.43
2018-03-02T01:32:14.109Z,12.03
2018-03-02T01:34:46.633Z,12.60
2018-03-02T01:37:19.149Z,11.20
2018-03-02T01:39:51.686Z,10.47
2018-03-02T01:42:24.200Z,11.17
2018-03-02T01:44:56.762Z,6.47
2018-03-02T01:47:29.307Z,12.83
2018-03-02T01:50:01.832Z,13.43
2018-03-02T01:52:34.353Z,13.20
2018-03-02T01:55:06.894Z,11.00
2018-03-02T01:57:39.408Z,12.47
2018-03-02T02:00:11.948Z,11.00
2018-03-02T02:02:44.808Z,12.23
2018-03-02T02:05:17.323Z,13.30
2018-03-02T02:07:49.826Z,9.67
2018-03-02T02:10:22.348Z,14.07
2018-03-02T02:12:54.857Z,14.03
2018-03-02T02:15:27.386Z,12.07
2018-03-02T02:17:59.967Z,12.07
2018-03-02T02:20:32.487Z,13.83
2018-03-02T02:23:05.000Z,13.07
2018-03-02T02:25:37.516Z,14.20
2018-03-02T02:28:10.038Z,13.87
2018-03-02T02:30:42.560Z,6.10
2018-03-02T02:33:15.087Z,14.70
2018-03-02T02:35:47.616Z,12.97
2018-03-02T02:38:20.173Z,12.37
2018-03-02T02:40:52.747Z,14.47
2018-03-02T02:43:25.248Z,10.30
2018-03-02T02:45:57.796Z,12.33
2018-03-02T02:48:30.300Z,11.63
2018-03-02T02:51:02.851Z,14.93
2018-03-02T02:53:35.357Z,14.80
2018-03-02T02:56:07.936Z,14.40
2018-03-02T02:58:40.456Z,14.13
2018-03-02T03:01:12.983Z,10.70
2018-03-02T03:03:45.518Z,9.17
2018-03-02T03:06:18.040Z,8.90
2018-03-02T03:08:50.534Z,14.47
2018-03-02T03:11:23.068Z,15.00
2018-03-02T03:13:56.556Z,9.80
2018-03-02T03:16:29.087Z,13.87
2018-03-02T03:19:01.591Z,16.20
2018-03-02T03:21:34.134Z,11.47
2018-03-02T03:24:06.642Z,9.37
2018-03-02T03:26:39.166Z,15.63
2018-03-02T03:29:11.682Z,16.67
2018-03-02T03:31:44.216Z,15.67
2018-03-02T03:34:16.729Z,13.50
2018-03-02T03:36:49.263Z,15.70
2018-03-02T03:39:21.800Z,16.07
2018-03-02T03:41:54.315Z,17.13
2018-03-02T03:44:26.828Z,14.83
2018-03-02T03:46:59.347Z,10.10
2018-03-02T03:49:31.855Z,15.03
2018-03-02T03:52:04.377Z,16.53
2018-03-02T03:54:37.909Z,14.00
2018-03-02T03:57:10.436Z,15.60
2018-03-02T03:59:42.944Z,11.50
2018-03-02T04:02:15.479Z,14.83
2018-03-02T04:04:48.003Z,10.63
2018-03-02T04:07:20.579Z,17.17
2018-03-02T04:09:53.118Z,15.63
2018-03-02T04:12:25.630Z,15.23
2018-03-02T04:14:58.165Z,17.37
2018-03-02T04:17:30.729Z,18.40
2018-03-02T04:20:03.268Z,17.27
2018-03-02T04:22:35.778Z,17.43
2018-03-02T04:25:08.306Z,17.73
2018-03-02T04:27:40.829Z,16.93
2018-03-02T04:30:13.372Z,20.73
2018-03-02T04:32:45.880Z,18.50
2018-03-02T04:35:18.421Z,16.73
2018-03-02T04:37:50.938Z,19.03
2018-03-02T04:40:23.470Z,16.70
2018-03-02T04:42:55.983Z,18.20
2018-03-02T04:45:28.651Z,16.97
2018-03-02T04:48:01.184Z,19.07
2018-03-02T04:50:33.720Z,17.93
2018-03-02T04:53:06.966Z,19.27
2018-03-02T04:58:37.016Z,14.77
2018-03-02T05:01:09.556Z,19.30
2018-03-02T05:03:42.130Z,19.73
2018-03-02T05:06:14.651Z,19.00
2018-03-02T05:08:47.157Z,12.97
2018-03-02T05:11:19.716Z,17.93
2018-03-02T05:13:52.228Z,18.43
2018-03-02T05:16:24.759Z,9.77
2018-03-02T05:18:57.271Z,18.00
2018-03-02T05:21:29.800Z,18.63
2018-03-02T05:24:02.310Z,17.43
2018-03-02T05:26:34.842Z,19.23
2018-03-02T05:29:07.352Z,18.60
2018-03-02T05:31:39.915Z,16.40
2018-03-02T05:34:12.439Z,18.70
2018-03-02T05:36:44.966Z,19.87
2018-03-02T05:39:17.488Z,16.23
2018-03-02T05:41:50.250Z,18.73
2018-03-02T05:44:22.760Z,18.37
2018-03-02T05:46:56.298Z,18.10
2018-03-02T05:49:28.809Z,16.07
2018-03-02T05:52:01.338Z,17.77
2018-03-02T05:54:33.861Z,13.37
2018-03-02T05:57:06.389Z,17.53
2018-03-02T05:59:38.944Z,18.33
2018-03-02T06:02:11.482Z,18.33
2018-03-02T06:04:43.998Z,17.90
2018-03-02T06:07:16.522Z,18.97
2018-03-02T06:09:49.027Z,16.97
2018-03-02T06:12:21.559Z,10.00
2018-03-02T06:14:54.072Z,17.73
2018-03-02T06:17:26.611Z,18.23
2018-03-02T06:19:59.137Z,18.53
2018-03-02T06:22:31.669Z,17.83
2018-03-02T06:25:04.178Z,14.97
2018-03-02T06:27:36.719Z,16.50
2018-03-02T06:30:09.246Z,18.10
2018-03-02T06:32:41.772Z,16.70
2018-03-02T06:35:14.291Z,16.57
2018-03-02T06:37:46.811Z,16.80
2018-03-02T06:40:19.324Z,17.73
2018-03-02T06:42:51.848Z,15.50
2018-03-02T06:45:24.372Z,17.83
2018-03-02T06:47:56.906Z,11.87
2018-03-02T06:50:29.422Z,17.40
2018-03-02T06:53:01.934Z,15.23
2018-03-02T06:55:34.441Z,12.37
2018-03-02T06:58:06.980Z,9.27
2018-03-02T07:00:39.495Z,17.80
2018-03-02T07:03:12.040Z,18.57
2018-03-02T07:05:44.546Z,16.30
2018-03-02T07:08:17.071Z,17.03
2018-03-02T07:10:49.575Z,17.33
2018-03-02T07:13:22.109Z,18.03
2018-03-02T07:15:54.663Z,18.30
2018-03-02T07:18:27.191Z,18.03
2018-03-02T07:20:59.727Z,18.63
2018-03-02T07:23:32.243Z,10.40
2018-03-02T07:26:04.775Z,11.50
2018-03-02T07:28:37.331Z,6.90
2018-03-02T07:31:09.878Z,16.30
2018-03-02T07:33:42.383Z,17.77
2018-03-02T07:36:14.908Z,17.67
2018-03-02T07:38:47.442Z,18.80
2018-03-02T07:41:19.969Z,16.77
2018-03-02T07:43:52.473Z,18.90
2018-03-02T07:46:25.002Z,18.33
2018-03-02T07:48:57.521Z,17.07
2018-03-02T07:51:30.046Z,17.97
2018-03-02T07:54:02.549Z,17.57
2018-03-02T07:56:35.094Z,15.50
2018-03-02T07:59:07.600Z,17.77
2018-03-02T08:01:40.132Z,12.43
2018-03-02T08:04:12.632Z,18.27
2018-03-02T08:06:45.193Z,18.70
2018-03-02T08:09:17.692Z,18.07
2018-03-02T08:11:50.285Z,17.03
2018-03-02T08:14:22.785Z,15.53
2018-03-02T08:16:55.316Z,19.07
2018-03-02T08:19:27.821Z,19.27
2018-03-02T08:22:00.349Z,18.40
2018-03-02T08:24:32.862Z,22.63
2018-03-02T08:27:05.381Z,20.40
2018-03-02T08:29:37.900Z,18.07
2018-03-02T08:32:10.425Z,20.20
2018-03-02T08:34:42.931Z,22.37
2018-03-02T08:37:15.463Z,17.97
2018-03-02T08:39:47.960Z,17.80
2018-03-02T08:42:20.477Z,22.23
2018-03-02T08:44:52.975Z,18.40
2018-03-02T08:47:25.495Z,19.90
2018-03-02T08:49:58.009Z,19.43
2018-03-02T08:52:30.553Z,19.53
2018-03-02T08:55:03.058Z,17.50
2018-03-02T08:57:35.582Z,15.73
2018-03-02T09:00:08.099Z,16.40
2018-03-02T09:02:40.635Z,20.53
2018-03-02T09:05:13.148Z,18.37
2018-03-02T09:07:45.670Z,16.50
2018-03-02T09:10:18.180Z,16.97
2018-03-02T09:12:50.737Z,20.30
2018-03-02T09:15:23.245Z,17.70
2018-03-02T09:17:55.791Z,21.23
2018-03-02T09:20:28.288Z,19.43
2018-03-02T09:23:00.818Z,13.00
2018-03-02T09:25:33.328Z,15.57
2018-03-02T09:28:05.853Z,16.30
2018-03-02T09:30:38.357Z,16.77
2018-03-02T09:33:10.901Z,21.23
2018-03-02T09:35:43.404Z,21.83
2018-03-02T09:38:15.931Z,15.40
2018-03-02T09:40:48.427Z,21.87
2018-03-02T09:43:20.952Z,18.50
2018-03-02T09:45:53.465Z,15.77
2018-03-02T09:48:25.997Z,19.40
2018-03-02T09:50:58.494Z,10.93
2018-03-02T09:53:31.025Z,17.90
2018-03-02T09:56:03.539Z,21.50
2018-03-02T09:58:36.051Z,19.37
2018-03-02T10:01:08.580Z,10.87
2018-03-02T10:03:41.144Z,22.77
2018-03-02T10:06:13.724Z,15.73
2018-03-02T10:08:46.250Z,21.83
2018-03-02T10:11:18.753Z,20.47
2018-03-02T10:13:51.281Z,20.70
2018-03-02T10:16:23.786Z,22.63
2018-03-02T10:18:56.609Z,20.53
2018-03-02T10:21:29.133Z,18.97
2018-03-02T10:24:01.643Z,19.60
2018-03-02T10:26:34.150Z,20.53
2018-03-02T10:29:06.683Z,18.43
2018-03-02T10:31:39.189Z,16.93
2018-03-02T10:34:11.710Z,17.90
2018-03-02T10:36:44.215Z,17.37
2018-03-02T10:39:16.749Z,23.33
2018-03-02T10:41:49.254Z,19.80
2018-03-02T10:44:21.774Z,19.60
2018-03-02T10:46:54.271Z,18.53
2018-03-02T10:49:26.806Z,18.27
2018-03-02T10:51:59.308Z,18.37
2018-03-02T10:54:31.830Z,17.40
2018-03-02T10:57:04.332Z,14.73
2018-03-02T10:59:36.849Z,18.13
2018-03-02T11:02:14.956Z,17.77
2018-03-02T11:04:47.462Z,17.27
2018-03-02T11:07:19.998Z,17.33
2018-03-02T11:09:52.513Z,16.03
2018-03-02T11:12:25.029Z,17.43
2018-03-02T11:14:57.527Z,17.83
2018-03-02T11:17:30.047Z,15.20
2018-03-02T11:20:02.541Z,17.10
2018-03-02T11:22:35.068Z,17.87
2018-03-02T11:25:07.576Z,20.00
2018-03-02T11:27:40.119Z,16.00
2018-03-02T11:30:12.662Z,16.03
2018-03-02T11:32:45.200Z,17.93
2018-03-02T11:35:17.711Z,12.80
2018-03-02T11:37:50.240Z,16.20
2018-03-02T11:40:22.741Z,17.27
2018-03-02T11:42:55.289Z,15.50
2018-03-02T11:45:27.788Z,17.47
2018-03-02T11:48:00.304Z,16.87
2018-03-02T11:50:32.837Z,17.33
2018-03-02T11:53:05.357Z,14.53
2018-03-02T11:55:37.871Z,16.70
2018-03-02T11:58:10.390Z,16.30
2018-03-02T12:00:42.899Z,15.87
2018-03-02T12:03:15.432Z,16.23
2018-03-02T12:05:47.997Z,16.27
2018-03-02T12:08:20.525Z,17.00
2018-03-02T12:10:53.089Z,15.33
2018-03-02T12:13:25.618Z,8.90
2018-03-02T12:15:58.122Z,14.97
2018-03-02T12:18:30.655Z,13.73
2018-03-02T12:21:03.171Z,13.93
2018-03-02T12:23:35.816Z,15.10
2018-03-02T12:26:08.356Z,16.07
2018-03-02T12:28:40.902Z,13.63
2018-03-02T12:31:13.417Z,15.03
2018-03-02T12:33:45.968Z,15.27
2018-03-02T12:36:18.483Z,14.40
2018-03-02T12:38:51.022Z,14.53
2018-03-02T12:41:23.523Z,15.20
2018-03-02T12:43:56.044Z,14.53
2018-03-02T12:46:28.556Z,12.00
2018-03-02T12:49:01.163Z,8.40
2018-03-02T12:51:33.713Z,14.87
2018-03-02T12:54:06.312Z,8.77
2018-03-02T12:56:38.816Z,14.97
2018-03-02T12:59:11.381Z,15.67
2018-03-02T13:01:43.890Z,14.43
2018-03-02T13:04:16.407Z,14.47
2018-03-02T13:06:48.980Z,14.33
2018-03-02T13:09:21.566Z,15.93
2018-03-02T13:11:54.073Z,13.67
2018-03-02T13:14:26.593Z,15.40
2018-03-02T13:16:59.092Z,10.57
2018-03-02T13:19:32.612Z,14.30
2018-03-02T13:22:05.131Z,15.30
2018-03-02T13:24:37.855Z,15.00
2018-03-02T13:27:22.094Z,13.67
2018-03-02T13:29:54.616Z,14.13
2018-03-02T13:32:27.119Z,14.50
2018-03-02T13:35:15.332Z,14.83
2018-03-02T13:37:47.832Z,14.60
2018-03-02T13:40:32.173Z,15.03
2018-03-02T13:43:04.691Z,15.17
2018-03-02T13:45:37.213Z,13.33
2018-03-02T13:51:18.001Z,10.47
2018-03-02T13:53:50.532Z,13.57
2018-03-02T13:56:34.891Z,13.53
2018-03-02T13:59:07.427Z,12.30
2018-03-02T14:01:39.936Z,14.67
2018-03-02T14:04:24.337Z,14.80
2018-03-02T14:06:56.856Z,13.60
2018-03-02T14:09:29.368Z,12.13
2018-03-02T14:12:01.877Z,14.73
2018-03-02T14:14:34.398Z,13.23
2018-03-02T14:17:06.920Z,14.13
2018-03-02T14:19:39.448Z,12.37
2018-03-02T14:22:12.098Z,11.43
2018-03-02T14:24:44.612Z,15.10
2018-03-02T14:27:17.629Z,10.07
2018-03-02T14:29:50.200Z,14.53
2018-03-02T14:35:01.717Z,12.70
2018-03-02T14:37:34.217Z,9.43
2018-03-02T14:40:06.741Z,11.27
2018-03-02T14:42:39.262Z,14.33
2018-03-02T14:45:11.833Z,10.87
2018-03-02T14:47:44.602Z,11.77
2018-03-02T14:50:17.162Z,14.63
2018-03-02T14:52:49.699Z,12.10
2018-03-02T14:55:22.260Z,13.50
2018-03-02T14:57:54.963Z,13.57
2018-03-02T15:00:27.559Z,13.53
2018-03-02T15:03:00.400Z,12.93
2018-03-02T15:05:33.069Z,13.30
2018-03-02T15:08:05.578Z,10.17
2018-03-02T15:10:38.301Z,14.13
2018-03-02T15:13:10.828Z,13.37
2018-03-02T15:15:43.364Z,13.67
2018-03-02T15:18:15.889Z,14.20
2018-03-02T15:20:48.420Z,14.10
2018-03-02T15:23:29.277Z,12.43
2018-03-02T15:26:02.254Z,10.70
2018-03-02T15:28:34.877Z,13.70
2018-03-02T15:31:07.464Z,9.57
2018-03-02T15:33:39.976Z,13.00
2018-03-02T15:36:12.504Z,14.13
2018-03-02T15:38:45.004Z,11.63
2018-03-02T15:41:17.531Z,9.80
2018-03-02T15:43:50.039Z,13.60
2018-03-02T15:46:22.553Z,11.23
2018-03-02T15:48:55.061Z,14.23
2018-03-02T15:51:27.604Z,12.70
2018-03-02T15:54:00.121Z,13.10
2018-03-02T15:56:32.640Z,11.83
2018-03-02T15:59:05.143Z,13.10
2018-03-02T16:01:37.668Z,10.40
2018-03-02T16:04:10.176Z,13.30
2018-03-02T16:06:42.689Z,13.90
2018-03-02T16:09:15.196Z,10.77
2018-03-02T16:11:47.704Z,13.23
2018-03-02T16:14:20.210Z,13.33
2018-03-02T16:16:52.782Z,11.47
2018-03-02T16:19:25.293Z,12.57
2018-03-02T16:21:57.808Z,12.80
2018-03-02T16:24:30.343Z,13.03
2018-03-02T16:27:02.863Z,13.63
2018-03-02T16:29:35.438Z,13.90
2018-03-02T16:32:07.956Z,12.43
2018-03-02T16:34:40.466Z,13.00
2018-03-02T16:37:12.996Z,13.17
2018-03-02T16:39:45.507Z,12.80
2018-03-02T16:42:18.025Z,11.77
2018-03-02T16:44:50.584Z,38.30
2018-03-02T16:47:23.103Z,35.83
2018-03-02T16:49:55.620Z,45.00
2018-03-02T16:52:28.145Z,16.87
2018-03-02T16:55:00.664Z,23.43
2018-03-02T16:57:33.204Z,18.00
2018-03-02T17:00:05.714Z,14.30
2018-03-02T17:02:38.246Z,15.07
2018-03-02T17:05:10.764Z,13.80
2018-03-02T17:07:43.289Z,15.53
2018-03-02T17:10:15.807Z,15.20
2018-03-02T17:12:48.344Z,14.97
2018-03-02T17:15:20.849Z,14.30
2018-03-02T17:17:53.372Z,15.07
2018-03-02T17:20:25.896Z,13.37
2018-03-02T17:54:16.925Z,13.30
2018-03-02T17:56:49.681Z,13.23
2018-03-02T17:59:22.310Z,13.50
